sensor_id;sensor_type;location;lat;lon;timestamp;temperature;humidity
18281;DHT22;9266;51.132;17.062;2022-07-29T00:01:14;16.50;1.00
18281;DHT22;9266;51.132;17.062;2022-07-29T00:03:42;16.60;1.00
18281;DHT22;9266;51.132;17.062;2022-07-29T00:06:09;16.50;1.00
18281;DHT22;9266;51.132;17.062;2022-07-29T00:08:36;16.50;1.00
18281;DHT22;9266;51.132;17.062;2022-07-29T00:11:04;16.40;1.00
18281;DHT22;9266;51.132;17.062;2022-07-29T00:13:32;16.40;1.00
18281;DHT22;9266;51.132;17.062;2022-07-29T00:15:59;16.40;1.00
18281;DHT22;9266;51.132;17.062;2022-07-29T00:18:27;16.40;1.00
18281;DHT22;9266;51.132;17.062;2022-07-29T00:20:54;16.30;1.00
18281;DHT22;9266;51.132;17.062;2022-07-29T00:23:21;16.30;1.00
18281;DHT22;9266;51.132;17.062;2022-07-29T00:25:48;16.30;1.00
18281;DHT22;9266;51.132;17.062;2022-07-29T00:28:15;16.20;1.00
18281;DHT22;9266;51.132;17.062;2022-07-29T00:30:44;16.10;1.00
18281;DHT22;9266;51.132;17.062;2022-07-29T00:33:11;16.00;1.00
18281;DHT22;9266;51.132;17.062;2022-07-29T00:35:38;16.00;1.00
18281;DHT22;9266;51.132;17.062;2022-07-29T00:38:11;15.90;1.00
18281;DHT22;9266;51.132;17.062;2022-07-29T00:40:38;15.90;1.00
18281;DHT22;9266;51.132;17.062;2022-07-29T00:43:05;15.90;1.00
18281;DHT22;9266;51.132;17.062;2022-07-29T00:45:32;15.90;1.00
18281;DHT22;9266;51.132;17.062;2022-07-29T00:48:01;15.90;1.00
18281;DHT22;9266;51.132;17.062;2022-07-29T00:50:29;15.90;1.00
18281;DHT22;9266;51.132;17.062;2022-07-29T00:52:56;15.90;1.00
18281;DHT22;9266;51.132;17.062;2022-07-29T00:55:23;15.80;1.00
18281;DHT22;9266;51.132;17.062;2022-07-29T00:57:50;15.70;1.00
18281;DHT22;9266;51.132;17.062;2022-07-29T01:00:20;15.60;1.00
18281;DHT22;9266;51.132;17.062;2022-07-29T01:02:48;15.70;1.00
18281;DHT22;9266;51.132;17.062;2022-07-29T01:05:18;15.70;1.00
18281;DHT22;9266;51.132;17.062;2022-07-29T01:07:46;15.60;1.00
18281;DHT22;9266;51.132;17.062;2022-07-29T01:10:16;15.50;1.00
18281;DHT22;9266;51.132;17.062;2022-07-29T01:12:47;15.50;1.00
18281;DHT22;9266;51.132;17.062;2022-07-29T01:15:15;15.50;1.00
18281;DHT22;9266;51.132;17.062;2022-07-29T01:17:44;15.40;1.00
18281;DHT22;9266;51.132;17.062;2022-07-29T01:20:20;15.30;1.00
18281;DHT22;9266;51.132;17.062;2022-07-29T01:26:12;15.20;1.00
18281;DHT22;9266;51.132;17.062;2022-07-29T01:28:56;15.20;1.00
18281;DHT22;9266;51.132;17.062;2022-07-29T01:31:31;15.20;1.00
18281;DHT22;9266;51.132;17.062;2022-07-29T01:34:05;15.30;1.00
18281;DHT22;9266;51.132;17.062;2022-07-29T01:36:37;15.10;1.00
18281;DHT22;9266;51.132;17.062;2022-07-29T01:39:10;15.20;1.00
18281;DHT22;9266;51.132;17.062;2022-07-29T01:41:43;15.20;1.00
18281;DHT22;9266;51.132;17.062;2022-07-29T01:44:19;15.20;1.00
18281;DHT22;9266;51.132;17.062;2022-07-29T01:46:52;15.20;1.00
18281;DHT22;9266;51.132;17.062;2022-07-29T01:49:23;15.20;1.00
18281;DHT22;9266;51.132;17.062;2022-07-29T01:51:56;15.10;1.00
18281;DHT22;9266;51.132;17.062;2022-07-29T01:54:29;15.10;1.00
18281;DHT22;9266;51.132;17.062;2022-07-29T01:56:58;15.10;1.00
18281;DHT22;9266;51.132;17.062;2022-07-29T01:59:28;15.10;1.00
18281;DHT22;9266;51.132;17.062;2022-07-29T02:01:58;15.10;1.00
18281;DHT22;9266;51.132;17.062;2022-07-29T02:04:27;15.00;1.00
18281;DHT22;9266;51.132;17.062;2022-07-29T02:06:58;14.90;1.00
18281;DHT22;9266;51.132;17.062;2022-07-29T02:09:28;14.80;1.00
18281;DHT22;9266;51.132;17.062;2022-07-29T02:11:56;14.70;1.00
18281;DHT22;9266;51.132;17.062;2022-07-29T02:14:24;14.70;1.00
18281;DHT22;9266;51.132;17.062;2022-07-29T02:16:56;14.80;1.00
18281;DHT22;9266;51.132;17.062;2022-07-29T02:19:25;14.90;1.00
18281;DHT22;9266;51.132;17.062;2022-07-29T02:21:54;14.90;1.00
18281;DHT22;9266;51.132;17.062;2022-07-29T02:24:23;14.90;1.00
18281;DHT22;9266;51.132;17.062;2022-07-29T02:26:52;14.80;1.00
18281;DHT22;9266;51.132;17.062;2022-07-29T02:29:22;14.90;1.00
18281;DHT22;9266;51.132;17.062;2022-07-29T02:31:50;14.80;1.00
18281;DHT22;9266;51.132;17.062;2022-07-29T02:34:20;14.80;1.00
18281;DHT22;9266;51.132;17.062;2022-07-29T02:36:48;14.90;1.00
18281;DHT22;9266;51.132;17.062;2022-07-29T02:39:17;14.90;1.00
18281;DHT22;9266;51.132;17.062;2022-07-29T02:41:46;14.80;1.00
18281;DHT22;9266;51.132;17.062;2022-07-29T02:44:17;14.80;1.00
18281;DHT22;9266;51.132;17.062;2022-07-29T02:46:49;14.80;1.00
18281;DHT22;9266;51.132;17.062;2022-07-29T02:49:27;14.70;1.00
18281;DHT22;9266;51.132;17.062;2022-07-29T02:52:02;14.70;1.00
18281;DHT22;9266;51.132;17.062;2022-07-29T02:54:33;14.60;1.00
18281;DHT22;9266;51.132;17.062;2022-07-29T02:57:09;14.60;1.00
18281;DHT22;9266;51.132;17.062;2022-07-29T02:59:41;14.60;1.00
18281;DHT22;9266;51.132;17.062;2022-07-29T03:02:09;14.60;1.00
18281;DHT22;9266;51.132;17.062;2022-07-29T03:04:40;14.60;1.00
18281;DHT22;9266;51.132;17.062;2022-07-29T03:07:09;14.50;1.00
18281;DHT22;9266;51.132;17.062;2022-07-29T03:09:38;14.50;1.00
18281;DHT22;9266;51.132;17.062;2022-07-29T03:12:06;14.50;1.00
18281;DHT22;9266;51.132;17.062;2022-07-29T03:14:33;14.50;1.00
18281;DHT22;9266;51.132;17.062;2022-07-29T03:17:02;14.50;1.00
18281;DHT22;9266;51.132;17.062;2022-07-29T03:19:29;14.50;1.00
18281;DHT22;9266;51.132;17.062;2022-07-29T03:21:59;14.50;1.00
18281;DHT22;9266;51.132;17.062;2022-07-29T03:24:29;14.50;1.00
18281;DHT22;9266;51.132;17.062;2022-07-29T03:26:56;14.40;1.00
18281;DHT22;9266;51.132;17.062;2022-07-29T03:29:24;14.40;1.00
18281;DHT22;9266;51.132;17.062;2022-07-29T03:31:52;14.50;1.00
18281;DHT22;9266;51.132;17.062;2022-07-29T03:34:19;14.60;1.00
18281;DHT22;9266;51.132;17.062;2022-07-29T03:36:47;14.80;1.00
18281;DHT22;9266;51.132;17.062;2022-07-29T03:39:18;15.00;1.00
18281;DHT22;9266;51.132;17.062;2022-07-29T03:41:49;15.20;1.00
18281;DHT22;9266;51.132;17.062;2022-07-29T03:44:18;15.40;1.00
18281;DHT22;9266;51.132;17.062;2022-07-29T03:46:48;15.50;1.00
18281;DHT22;9266;51.132;17.062;2022-07-29T03:49:18;15.60;1.00
18281;DHT22;9266;51.132;17.062;2022-07-29T03:51:46;16.10;1.00
18281;DHT22;9266;51.132;17.062;2022-07-29T03:54:15;16.70;1.00
18281;DHT22;9266;51.132;17.062;2022-07-29T03:56:45;17.10;1.00
18281;DHT22;9266;51.132;17.062;2022-07-29T03:59:13;17.30;1.00
18281;DHT22;9266;51.132;17.062;2022-07-29T04:01:42;17.40;1.00
18281;DHT22;9266;51.132;17.062;2022-07-29T04:04:10;17.30;1.00
18281;DHT22;9266;51.132;17.062;2022-07-29T04:06:39;17.30;1.00
18281;DHT22;9266;51.132;17.062;2022-07-29T04:09:06;17.40;1.00
18281;DHT22;9266;51.132;17.062;2022-07-29T04:11:36;17.60;1.00
18281;DHT22;9266;51.132;17.062;2022-07-29T04:14:03;17.60;1.00
18281;DHT22;9266;51.132;17.062;2022-07-29T04:16:30;18.00;1.00
18281;DHT22;9266;51.132;17.062;2022-07-29T04:18:58;18.40;1.00
18281;DHT22;9266;51.132;17.062;2022-07-29T04:21:25;18.90;1.00
18281;DHT22;9266;51.132;17.062;2022-07-29T04:23:52;19.40;1.00
18281;DHT22;9266;51.132;17.062;2022-07-29T04:26:19;19.80;1.00
18281;DHT22;9266;51.132;17.062;2022-07-29T04:28:48;20.40;1.00
18281;DHT22;9266;51.132;17.062;2022-07-29T04:31:15;20.30;1.00
18281;DHT22;9266;51.132;17.062;2022-07-29T04:33:42;21.00;1.00
18281;DHT22;9266;51.132;17.062;2022-07-29T04:36:09;20.30;1.00
18281;DHT22;9266;51.132;17.062;2022-07-29T04:38:38;20.60;1.00
18281;DHT22;9266;51.132;17.062;2022-07-29T04:41:05;21.40;1.00
18281;DHT22;9266;51.132;17.062;2022-07-29T04:43:34;22.00;1.00
18281;DHT22;9266;51.132;17.062;2022-07-29T04:46:03;21.60;1.00
18281;DHT22;9266;51.132;17.062;2022-07-29T04:48:30;22.60;1.00
18281;DHT22;9266;51.132;17.062;2022-07-29T04:50:57;23.20;1.00
18281;DHT22;9266;51.132;17.062;2022-07-29T04:53:25;23.50;1.00
18281;DHT22;9266;51.132;17.062;2022-07-29T04:55:52;23.70;1.00
18281;DHT22;9266;51.132;17.062;2022-07-29T04:58:19;23.20;1.00
18281;DHT22;9266;51.132;17.062;2022-07-29T05:00:48;22.70;1.00
18281;DHT22;9266;51.132;17.062;2022-07-29T05:03:22;23.30;1.00
18281;DHT22;9266;51.132;17.062;2022-07-29T05:05:49;23.70;1.00
18281;DHT22;9266;51.132;17.062;2022-07-29T05:08:16;23.90;1.00
18281;DHT22;9266;51.132;17.062;2022-07-29T05:10:43;23.90;1.00
18281;DHT22;9266;51.132;17.062;2022-07-29T05:13:10;23.80;1.00
18281;DHT22;9266;51.132;17.062;2022-07-29T05:15:37;23.20;1.00
18281;DHT22;9266;51.132;17.062;2022-07-29T05:18:05;23.20;1.00
18281;DHT22;9266;51.132;17.062;2022-07-29T05:20:33;23.00;1.00
18281;DHT22;9266;51.132;17.062;2022-07-29T05:23:01;22.60;1.00
18281;DHT22;9266;51.132;17.062;2022-07-29T05:25:29;22.30;1.00
18281;DHT22;9266;51.132;17.062;2022-07-29T05:27:56;22.10;1.00
18281;DHT22;9266;51.132;17.062;2022-07-29T05:30:24;21.90;1.00
18281;DHT22;9266;51.132;17.062;2022-07-29T05:32:51;21.50;1.00
18281;DHT22;9266;51.132;17.062;2022-07-29T05:35:18;21.00;1.00
18281;DHT22;9266;51.132;17.062;2022-07-29T05:37:46;20.30;1.00
18281;DHT22;9266;51.132;17.062;2022-07-29T05:40:13;20.20;1.00
18281;DHT22;9266;51.132;17.062;2022-07-29T05:42:40;20.10;1.00
18281;DHT22;9266;51.132;17.062;2022-07-29T05:45:08;20.20;1.00
18281;DHT22;9266;51.132;17.062;2022-07-29T05:47:35;20.20;1.00
18281;DHT22;9266;51.132;17.062;2022-07-29T05:50:02;20.50;1.00
18281;DHT22;9266;51.132;17.062;2022-07-29T05:52:30;20.80;1.00
18281;DHT22;9266;51.132;17.062;2022-07-29T05:54:58;20.90;1.00
18281;DHT22;9266;51.132;17.062;2022-07-29T05:57:28;21.30;1.00
18281;DHT22;9266;51.132;17.062;2022-07-29T05:59:55;21.60;1.00
18281;DHT22;9266;51.132;17.062;2022-07-29T06:02:22;21.90;1.00
18281;DHT22;9266;51.132;17.062;2022-07-29T06:04:49;22.30;1.00
18281;DHT22;9266;51.132;17.062;2022-07-29T06:07:16;22.50;1.00
18281;DHT22;9266;51.132;17.062;2022-07-29T06:09:43;22.00;1.00
18281;DHT22;9266;51.132;17.062;2022-07-29T06:12:12;21.90;1.00
18281;DHT22;9266;51.132;17.062;2022-07-29T06:14:40;21.70;1.00
18281;DHT22;9266;51.132;17.062;2022-07-29T06:17:06;22.10;1.00
18281;DHT22;9266;51.132;17.062;2022-07-29T06:19:34;22.60;1.00
18281;DHT22;9266;51.132;17.062;2022-07-29T06:22:02;23.50;1.00
18281;DHT22;9266;51.132;17.062;2022-07-29T06:24:29;24.10;1.00
18281;DHT22;9266;51.132;17.062;2022-07-29T06:26:56;24.50;1.00
18281;DHT22;9266;51.132;17.062;2022-07-29T06:29:24;24.70;1.00
18281;DHT22;9266;51.132;17.062;2022-07-29T06:31:51;24.50;1.00
18281;DHT22;9266;51.132;17.062;2022-07-29T06:34:18;23.70;1.00
18281;DHT22;9266;51.132;17.062;2022-07-29T06:36:46;23.10;1.00
18281;DHT22;9266;51.132;17.062;2022-07-29T06:39:14;23.30;1.00
18281;DHT22;9266;51.132;17.062;2022-07-29T06:41:41;23.80;1.00
18281;DHT22;9266;51.132;17.062;2022-07-29T06:44:09;23.90;1.00
18281;DHT22;9266;51.132;17.062;2022-07-29T06:46:37;24.00;1.00
18281;DHT22;9266;51.132;17.062;2022-07-29T06:49:04;24.10;1.00
18281;DHT22;9266;51.132;17.062;2022-07-29T06:51:32;24.00;1.00
18281;DHT22;9266;51.132;17.062;2022-07-29T06:53:59;23.70;1.00
18281;DHT22;9266;51.132;17.062;2022-07-29T06:56:27;23.50;1.00
18281;DHT22;9266;51.132;17.062;2022-07-29T06:58:54;23.90;1.00
18281;DHT22;9266;51.132;17.062;2022-07-29T07:01:21;24.50;1.00
18281;DHT22;9266;51.132;17.062;2022-07-29T07:03:49;25.00;1.00
18281;DHT22;9266;51.132;17.062;2022-07-29T07:06:16;24.90;1.00
18281;DHT22;9266;51.132;17.062;2022-07-29T07:08:43;24.20;1.00
18281;DHT22;9266;51.132;17.062;2022-07-29T07:11:11;24.00;1.00
18281;DHT22;9266;51.132;17.062;2022-07-29T07:13:38;23.90;1.00
18281;DHT22;9266;51.132;17.062;2022-07-29T07:16:05;23.60;1.00
18281;DHT22;9266;51.132;17.062;2022-07-29T07:18:32;23.60;1.00
18281;DHT22;9266;51.132;17.062;2022-07-29T07:21:00;23.50;1.00
18281;DHT22;9266;51.132;17.062;2022-07-29T07:23:27;23.90;1.00
18281;DHT22;9266;51.132;17.062;2022-07-29T07:25:54;24.20;1.00
18281;DHT22;9266;51.132;17.062;2022-07-29T07:28:21;24.50;1.00
18281;DHT22;9266;51.132;17.062;2022-07-29T07:30:48;24.80;1.00
18281;DHT22;9266;51.132;17.062;2022-07-29T07:33:15;25.10;1.00
18281;DHT22;9266;51.132;17.062;2022-07-29T07:35:42;24.80;1.00
18281;DHT22;9266;51.132;17.062;2022-07-29T07:38:11;25.00;1.00
18281;DHT22;9266;51.132;17.062;2022-07-29T07:40:38;24.60;1.00
18281;DHT22;9266;51.132;17.062;2022-07-29T07:43:05;24.30;1.00
18281;DHT22;9266;51.132;17.062;2022-07-29T07:45:33;23.90;1.00
18281;DHT22;9266;51.132;17.062;2022-07-29T07:48:02;23.90;1.00
18281;DHT22;9266;51.132;17.062;2022-07-29T07:50:29;24.20;1.00
18281;DHT22;9266;51.132;17.062;2022-07-29T07:52:56;24.40;1.00
18281;DHT22;9266;51.132;17.062;2022-07-29T07:55:25;24.20;1.00
18281;DHT22;9266;51.132;17.062;2022-07-29T07:57:53;24.20;1.00
18281;DHT22;9266;51.132;17.062;2022-07-29T08:00:21;24.10;1.00
18281;DHT22;9266;51.132;17.062;2022-07-29T08:02:48;24.00;1.00
18281;DHT22;9266;51.132;17.062;2022-07-29T08:05:16;24.20;1.00
18281;DHT22;9266;51.132;17.062;2022-07-29T08:07:44;23.80;1.00
18281;DHT22;9266;51.132;17.062;2022-07-29T08:10:12;24.10;1.00
18281;DHT22;9266;51.132;17.062;2022-07-29T08:12:41;24.00;1.00
18281;DHT22;9266;51.132;17.062;2022-07-29T08:15:09;24.50;1.00
18281;DHT22;9266;51.132;17.062;2022-07-29T08:17:36;25.00;1.00
18281;DHT22;9266;51.132;17.062;2022-07-29T08:20:03;25.10;1.00
18281;DHT22;9266;51.132;17.062;2022-07-29T08:22:30;25.10;1.00
18281;DHT22;9266;51.132;17.062;2022-07-29T08:24:57;25.40;1.00
18281;DHT22;9266;51.132;17.062;2022-07-29T08:27:24;26.00;1.00
18281;DHT22;9266;51.132;17.062;2022-07-29T08:29:53;26.40;1.00
18281;DHT22;9266;51.132;17.062;2022-07-29T08:32:21;26.80;1.00
18281;DHT22;9266;51.132;17.062;2022-07-29T08:34:48;26.90;1.00
18281;DHT22;9266;51.132;17.062;2022-07-29T08:37:15;27.20;1.00
18281;DHT22;9266;51.132;17.062;2022-07-29T08:39:42;27.10;1.00
18281;DHT22;9266;51.132;17.062;2022-07-29T08:42:10;26.80;1.00
18281;DHT22;9266;51.132;17.062;2022-07-29T08:44:38;26.70;1.00
18281;DHT22;9266;51.132;17.062;2022-07-29T08:47:07;26.90;1.00
18281;DHT22;9266;51.132;17.062;2022-07-29T08:49:34;26.70;1.00
18281;DHT22;9266;51.132;17.062;2022-07-29T08:52:02;26.40;1.00
18281;DHT22;9266;51.132;17.062;2022-07-29T08:54:29;26.40;1.00
18281;DHT22;9266;51.132;17.062;2022-07-29T08:56:57;26.70;1.00
18281;DHT22;9266;51.132;17.062;2022-07-29T08:59:26;26.70;1.00
18281;DHT22;9266;51.132;17.062;2022-07-29T09:01:54;27.20;1.00
18281;DHT22;9266;51.132;17.062;2022-07-29T09:04:29;26.90;1.00
18281;DHT22;9266;51.132;17.062;2022-07-29T09:06:57;26.60;1.00
18281;DHT22;9266;51.132;17.062;2022-07-29T09:09:27;26.40;1.00
18281;DHT22;9266;51.132;17.062;2022-07-29T09:11:54;26.50;1.00
18281;DHT22;9266;51.132;17.062;2022-07-29T09:14:21;26.10;1.00
18281;DHT22;9266;51.132;17.062;2022-07-29T09:16:51;26.30;1.00
18281;DHT22;9266;51.132;17.062;2022-07-29T09:19:23;26.40;1.00
18281;DHT22;9266;51.132;17.062;2022-07-29T09:21:53;26.60;1.00
18281;DHT22;9266;51.132;17.062;2022-07-29T09:24:38;26.50;1.00
18281;DHT22;9266;51.132;17.062;2022-07-29T09:27:10;26.70;1.00
18281;DHT22;9266;51.132;17.062;2022-07-29T09:29:38;26.40;1.00
18281;DHT22;9266;51.132;17.062;2022-07-29T09:32:08;26.50;1.00
18281;DHT22;9266;51.132;17.062;2022-07-29T09:34:36;26.30;1.00
18281;DHT22;9266;51.132;17.062;2022-07-29T09:37:05;26.20;1.00
18281;DHT22;9266;51.132;17.062;2022-07-29T09:39:34;26.10;1.00
18281;DHT22;9266;51.132;17.062;2022-07-29T09:42:03;26.50;1.00
18281;DHT22;9266;51.132;17.062;2022-07-29T09:44:45;26.70;1.00
18281;DHT22;9266;51.132;17.062;2022-07-29T09:47:13;26.30;1.00
18281;DHT22;9266;51.132;17.062;2022-07-29T09:49:52;26.30;1.00
18281;DHT22;9266;51.132;17.062;2022-07-29T09:52:21;26.20;1.00
18281;DHT22;9266;51.132;17.062;2022-07-29T09:54:48;26.30;1.00
18281;DHT22;9266;51.132;17.062;2022-07-29T09:57:24;26.20;1.00
18281;DHT22;9266;51.132;17.062;2022-07-29T09:59:59;26.60;1.00
18281;DHT22;9266;51.132;17.062;2022-07-29T10:02:30;26.60;1.00
18281;DHT22;9266;51.132;17.062;2022-07-29T10:04:58;26.30;1.00
18281;DHT22;9266;51.132;17.062;2022-07-29T10:07:43;26.30;1.00
18281;DHT22;9266;51.132;17.062;2022-07-29T10:10:11;26.40;1.00
18281;DHT22;9266;51.132;17.062;2022-07-29T10:12:55;26.10;1.00
18281;DHT22;9266;51.132;17.062;2022-07-29T10:15:24;26.30;1.00
18281;DHT22;9266;51.132;17.062;2022-07-29T10:17:52;26.20;1.00
18281;DHT22;9266;51.132;17.062;2022-07-29T10:20:20;26.60;1.00
18281;DHT22;9266;51.132;17.062;2022-07-29T10:22:49;26.80;1.00
18281;DHT22;9266;51.132;17.062;2022-07-29T10:25:17;26.80;1.00
18281;DHT22;9266;51.132;17.062;2022-07-29T10:27:45;26.50;1.00
18281;DHT22;9266;51.132;17.062;2022-07-29T10:30:14;26.60;1.00
18281;DHT22;9266;51.132;17.062;2022-07-29T10:32:54;26.40;1.00
18281;DHT22;9266;51.132;17.062;2022-07-29T10:35:59;26.50;1.00
18281;DHT22;9266;51.132;17.062;2022-07-29T10:38:43;26.30;1.00
18281;DHT22;9266;51.132;17.062;2022-07-29T10:41:39;26.40;1.00
18281;DHT22;9266;51.132;17.062;2022-07-29T10:44:15;26.70;1.00
18281;DHT22;9266;51.132;17.062;2022-07-29T10:46:44;26.40;1.00
18281;DHT22;9266;51.132;17.062;2022-07-29T10:49:12;26.80;1.00
18281;DHT22;9266;51.132;17.062;2022-07-29T10:52:01;27.20;1.00
18281;DHT22;9266;51.132;17.062;2022-07-29T10:54:43;27.00;1.00
18281;DHT22;9266;51.132;17.062;2022-07-29T10:57:17;26.90;1.00
18281;DHT22;9266;51.132;17.062;2022-07-29T10:59:45;27.10;1.00
18281;DHT22;9266;51.132;17.062;2022-07-29T11:02:41;27.20;1.00
18281;DHT22;9266;51.132;17.062;2022-07-29T11:05:10;27.10;1.00
18281;DHT22;9266;51.132;17.062;2022-07-29T11:07:39;27.30;1.00
18281;DHT22;9266;51.132;17.062;2022-07-29T11:10:23;27.50;1.00
18281;DHT22;9266;51.132;17.062;2022-07-29T11:12:51;27.10;1.00
18281;DHT22;9266;51.132;17.062;2022-07-29T11:15:19;26.80;1.00
18281;DHT22;9266;51.132;17.062;2022-07-29T11:18:07;27.10;1.00
18281;DHT22;9266;51.132;17.062;2022-07-29T11:20:37;27.00;1.00
18281;DHT22;9266;51.132;17.062;2022-07-29T11:23:24;27.30;1.00
18281;DHT22;9266;51.132;17.062;2022-07-29T11:26:14;27.40;1.00
18281;DHT22;9266;51.132;17.062;2022-07-29T11:28:59;27.50;1.00
18281;DHT22;9266;51.132;17.062;2022-07-29T11:31:36;27.50;1.00
18281;DHT22;9266;51.132;17.062;2022-07-29T11:34:18;27.30;1.00
18281;DHT22;9266;51.132;17.062;2022-07-29T11:37:17;27.30;1.00
18281;DHT22;9266;51.132;17.062;2022-07-29T11:39:46;27.10;1.00
18281;DHT22;9266;51.132;17.062;2022-07-29T11:42:40;27.10;1.00
18281;DHT22;9266;51.132;17.062;2022-07-29T11:45:09;27.10;1.00
18281;DHT22;9266;51.132;17.062;2022-07-29T11:47:40;27.10;1.00
18281;DHT22;9266;51.132;17.062;2022-07-29T11:50:09;27.40;1.00
18281;DHT22;9266;51.132;17.062;2022-07-29T11:52:38;27.50;1.00
18281;DHT22;9266;51.132;17.062;2022-07-29T11:55:12;27.30;1.00
18281;DHT22;9266;51.132;17.062;2022-07-29T11:57:47;27.20;1.00
18281;DHT22;9266;51.132;17.062;2022-07-29T12:00:23;27.50;1.00
18281;DHT22;9266;51.132;17.062;2022-07-29T12:02:51;27.80;1.00
18281;DHT22;9266;51.132;17.062;2022-07-29T12:05:19;27.90;1.00
18281;DHT22;9266;51.132;17.062;2022-07-29T12:07:46;27.90;1.00
18281;DHT22;9266;51.132;17.062;2022-07-29T12:10:14;27.80;1.00
18281;DHT22;9266;51.132;17.062;2022-07-29T12:12:41;27.70;1.00
18281;DHT22;9266;51.132;17.062;2022-07-29T12:15:14;27.50;1.00
18281;DHT22;9266;51.132;17.062;2022-07-29T12:17:43;27.50;1.00
18281;DHT22;9266;51.132;17.062;2022-07-29T12:20:10;27.50;1.00
18281;DHT22;9266;51.132;17.062;2022-07-29T12:22:40;28.80;1.00
18281;DHT22;9266;51.132;17.062;2022-07-29T12:25:12;28.20;1.00
18281;DHT22;9266;51.132;17.062;2022-07-29T12:27:41;28.20;1.00
18281;DHT22;9266;51.132;17.062;2022-07-29T12:30:10;27.80;1.00
18281;DHT22;9266;51.132;17.062;2022-07-29T12:32:42;27.50;1.00
18281;DHT22;9266;51.132;17.062;2022-07-29T12:35:10;27.50;1.00
18281;DHT22;9266;51.132;17.062;2022-07-29T12:37:40;27.80;1.00
18281;DHT22;9266;51.132;17.062;2022-07-29T12:40:09;27.60;1.00
18281;DHT22;9266;51.132;17.062;2022-07-29T12:42:37;27.50;1.00
18281;DHT22;9266;51.132;17.062;2022-07-29T12:45:05;27.40;1.00
18281;DHT22;9266;51.132;17.062;2022-07-29T12:47:33;27.40;1.00
18281;DHT22;9266;51.132;17.062;2022-07-29T12:50:12;27.10;1.00
18281;DHT22;9266;51.132;17.062;2022-07-29T12:52:40;27.00;1.00
18281;DHT22;9266;51.132;17.062;2022-07-29T12:55:07;27.00;1.00
18281;DHT22;9266;51.132;17.062;2022-07-29T12:57:45;27.00;1.00
18281;DHT22;9266;51.132;17.062;2022-07-29T13:00:14;27.00;1.00
18281;DHT22;9266;51.132;17.062;2022-07-29T13:02:42;27.00;1.00
18281;DHT22;9266;51.132;17.062;2022-07-29T13:05:12;27.00;1.00
18281;DHT22;9266;51.132;17.062;2022-07-29T13:07:39;27.20;1.00
18281;DHT22;9266;51.132;17.062;2022-07-29T13:10:11;27.10;1.00
18281;DHT22;9266;51.132;17.062;2022-07-29T13:12:39;27.20;1.00
18281;DHT22;9266;51.132;17.062;2022-07-29T13:15:14;27.20;1.00
18281;DHT22;9266;51.132;17.062;2022-07-29T13:17:42;27.40;1.00
18281;DHT22;9266;51.132;17.062;2022-07-29T13:20:12;27.50;1.00
18281;DHT22;9266;51.132;17.062;2022-07-29T13:22:40;27.50;1.00
18281;DHT22;9266;51.132;17.062;2022-07-29T13:25:09;27.50;1.00
18281;DHT22;9266;51.132;17.062;2022-07-29T13:27:39;27.20;1.00
18281;DHT22;9266;51.132;17.062;2022-07-29T13:30:08;27.10;1.00
18281;DHT22;9266;51.132;17.062;2022-07-29T13:32:36;27.00;1.00
18281;DHT22;9266;51.132;17.062;2022-07-29T13:35:05;27.30;1.00
18281;DHT22;9266;51.132;17.062;2022-07-29T13:37:34;27.50;1.00
18281;DHT22;9266;51.132;17.062;2022-07-29T13:40:04;27.80;1.00
18281;DHT22;9266;51.132;17.062;2022-07-29T13:42:32;27.80;1.00
18281;DHT22;9266;51.132;17.062;2022-07-29T13:44:59;27.60;1.00
18281;DHT22;9266;51.132;17.062;2022-07-29T13:47:27;27.50;1.00
18281;DHT22;9266;51.132;17.062;2022-07-29T13:49:54;27.50;1.00
18281;DHT22;9266;51.132;17.062;2022-07-29T13:52:22;27.30;1.00
18281;DHT22;9266;51.132;17.062;2022-07-29T13:54:50;27.10;1.00
18281;DHT22;9266;51.132;17.062;2022-07-29T13:57:17;27.00;1.00
18281;DHT22;9266;51.132;17.062;2022-07-29T13:59:45;27.20;1.00
18281;DHT22;9266;51.132;17.062;2022-07-29T14:02:12;27.40;1.00
18281;DHT22;9266;51.132;17.062;2022-07-29T14:04:39;27.50;1.00
18281;DHT22;9266;51.132;17.062;2022-07-29T14:07:07;27.70;1.00
18281;DHT22;9266;51.132;17.062;2022-07-29T14:09:34;27.80;1.00
18281;DHT22;9266;51.132;17.062;2022-07-29T14:12:03;27.50;1.00
18281;DHT22;9266;51.132;17.062;2022-07-29T14:14:30;27.50;1.00
18281;DHT22;9266;51.132;17.062;2022-07-29T14:16:58;27.50;1.00
18281;DHT22;9266;51.132;17.062;2022-07-29T14:19:25;27.60;1.00
18281;DHT22;9266;51.132;17.062;2022-07-29T14:21:52;27.60;1.00
18281;DHT22;9266;51.132;17.062;2022-07-29T14:24:20;27.80;1.00
18281;DHT22;9266;51.132;17.062;2022-07-29T14:26:47;27.90;1.00
18281;DHT22;9266;51.132;17.062;2022-07-29T14:29:15;27.90;1.00
18281;DHT22;9266;51.132;17.062;2022-07-29T14:31:42;27.90;1.00
18281;DHT22;9266;51.132;17.062;2022-07-29T14:34:10;27.70;1.00
18281;DHT22;9266;51.132;17.062;2022-07-29T14:36:37;27.90;1.00
18281;DHT22;9266;51.132;17.062;2022-07-29T14:39:04;27.80;1.00
18281;DHT22;9266;51.132;17.062;2022-07-29T14:41:31;27.50;1.00
18281;DHT22;9266;51.132;17.062;2022-07-29T14:43:58;27.40;1.00
18281;DHT22;9266;51.132;17.062;2022-07-29T14:46:27;27.50;1.00
18281;DHT22;9266;51.132;17.062;2022-07-29T14:48:54;27.70;1.00
18281;DHT22;9266;51.132;17.062;2022-07-29T14:51:21;27.60;1.00
18281;DHT22;9266;51.132;17.062;2022-07-29T14:53:49;27.50;1.00
18281;DHT22;9266;51.132;17.062;2022-07-29T14:56:16;27.50;1.00
18281;DHT22;9266;51.132;17.062;2022-07-29T14:58:43;27.60;1.00
18281;DHT22;9266;51.132;17.062;2022-07-29T15:01:10;27.80;1.00
18281;DHT22;9266;51.132;17.062;2022-07-29T15:03:44;28.00;1.00
18281;DHT22;9266;51.132;17.062;2022-07-29T15:06:11;27.80;1.00
18281;DHT22;9266;51.132;17.062;2022-07-29T15:08:39;27.50;1.00
18281;DHT22;9266;51.132;17.062;2022-07-29T15:11:06;27.30;1.00
18281;DHT22;9266;51.132;17.062;2022-07-29T15:13:34;26.90;1.00
18281;DHT22;9266;51.132;17.062;2022-07-29T15:16:01;26.80;1.00
18281;DHT22;9266;51.132;17.062;2022-07-29T15:18:28;26.70;1.00
18281;DHT22;9266;51.132;17.062;2022-07-29T15:20:57;26.70;1.00
18281;DHT22;9266;51.132;17.062;2022-07-29T15:23:25;26.70;1.00
18281;DHT22;9266;51.132;17.062;2022-07-29T15:25:53;26.60;1.00
18281;DHT22;9266;51.132;17.062;2022-07-29T15:28:20;26.60;1.00
18281;DHT22;9266;51.132;17.062;2022-07-29T15:30:47;26.70;1.00
18281;DHT22;9266;51.132;17.062;2022-07-29T15:33:14;26.70;1.00
18281;DHT22;9266;51.132;17.062;2022-07-29T15:35:41;26.90;1.00
18281;DHT22;9266;51.132;17.062;2022-07-29T15:38:10;27.00;1.00
18281;DHT22;9266;51.132;17.062;2022-07-29T15:40:37;27.10;1.00
18281;DHT22;9266;51.132;17.062;2022-07-29T15:43:05;27.20;1.00
18281;DHT22;9266;51.132;17.062;2022-07-29T15:45:35;27.30;1.00
18281;DHT22;9266;51.132;17.062;2022-07-29T15:48:04;27.20;1.00
18281;DHT22;9266;51.132;17.062;2022-07-29T15:50:32;27.10;1.00
18281;DHT22;9266;51.132;17.062;2022-07-29T15:53:00;27.00;1.00
18281;DHT22;9266;51.132;17.062;2022-07-29T15:55:29;26.90;1.00
18281;DHT22;9266;51.132;17.062;2022-07-29T15:57:57;26.90;1.00
18281;DHT22;9266;51.132;17.062;2022-07-29T16:00:27;26.70;1.00
18281;DHT22;9266;51.132;17.062;2022-07-29T16:02:54;26.60;1.00